sensor_id;sensor_type;location;lat;lon;timestamp;pressure;altitude;pressure_sealevel;temperature;humidity
80414;BME280;69758;52.580;13.068;2024-02-21T00:01:14;101825.46;;;14.79;32.59
80414;BME280;69758;52.580;13.068;2024-02-21T00:03:34;101818.94;;;15.10;32.57
80414;BME280;69758;52.580;13.068;2024-02-21T00:06:00;101813.31;;;14.97;32.45
80414;BME280;69758;52.580;13.068;2024-02-21T00:08:26;101809.87;;;15.10;32.53
80414;BME280;69758;52.580;13.068;2024-02-21T00:10:52;101810.00;;;14.57;32.61
80414;BME280;69758;52.580;13.068;2024-02-21T00:13:18;101808.78;;;14.87;32.54
80414;BME280;69758;52.580;13.068;2024-02-21T00:15:44;101805.58;;;14.86;32.50
80414;BME280;69758;52.580;13.068;2024-02-21T00:18:09;101805.23;;;14.85;32.46
80414;BME280;69758;52.580;13.068;2024-02-21T00:20:35;101805.65;;;14.86;32.42
80414;BME280;69758;52.580;13.068;2024-02-21T00:23:00;101804.88;;;14.68;32.58
80414;BME280;69758;52.580;13.068;2024-02-21T00:25:25;101802.19;;;14.74;32.52
80414;BME280;69758;52.580;13.068;2024-02-21T00:27:50;101803.99;;;14.83;32.42
80414;BME280;69758;52.580;13.068;2024-02-21T00:30:16;101799.57;;;14.88;32.30
80414;BME280;69758;52.580;13.068;2024-02-21T00:32:41;101798.87;;;14.43;32.28
80414;BME280;69758;52.580;13.068;2024-02-21T00:35:07;101793.94;;;14.89;32.27
80414;BME280;69758;52.580;13.068;2024-02-21T00:37:31;101789.51;;;14.84;32.28
80414;BME280;69758;52.580;13.068;2024-02-21T00:39:57;101788.37;;;14.86;32.22
80414;BME280;69758;52.580;13.068;2024-02-21T00:42:22;101785.13;;;14.82;32.23
80414;BME280;69758;52.580;13.068;2024-02-21T00:44:47;101783.01;;;14.76;32.29
80414;BME280;69758;52.580;13.068;2024-02-21T00:47:13;101780.85;;;14.87;32.29
80414;BME280;69758;52.580;13.068;2024-02-21T00:49:39;101780.41;;;14.74;32.45
80414;BME280;69758;52.580;13.068;2024-02-21T00:52:04;101778.20;;;14.69;32.50
80414;BME280;69758;52.580;13.068;2024-02-21T00:54:30;101774.30;;;14.56;32.41
80414;BME280;69758;52.580;13.068;2024-02-21T00:56:56;101775.76;;;14.69;32.52
80414;BME280;69758;52.580;13.068;2024-02-21T00:59:21;101773.49;;;14.79;32.38
80414;BME280;69758;52.580;13.068;2024-02-21T01:01:47;101772.07;;;14.61;32.27
80414;BME280;69758;52.580;13.068;2024-02-21T01:04:12;101768.24;;;14.56;32.27
80414;BME280;69758;52.580;13.068;2024-02-21T01:06:39;101767.36;;;14.75;32.28
80414;BME280;69758;52.580;13.068;2024-02-21T01:09:03;101769.33;;;14.84;32.21
80414;BME280;69758;52.580;13.068;2024-02-21T01:11:28;101765.69;;;14.75;32.27
80414;BME280;69758;52.580;13.068;2024-02-21T01:13:55;101766.22;;;14.70;32.32
80414;BME280;69758;52.580;13.068;2024-02-21T01:16:19;101764.47;;;14.93;32.33
80414;BME280;69758;52.580;13.068;2024-02-21T01:18:44;101761.64;;;14.56;32.24
80414;BME280;69758;52.580;13.068;2024-02-21T01:21:09;101759.84;;;14.89;32.12
80414;BME280;69758;52.580;13.068;2024-02-21T01:23:36;101756.92;;;14.82;32.21
80414;BME280;69758;52.580;13.068;2024-02-21T01:26:00;101753.06;;;14.48;32.28
80414;BME280;69758;52.580;13.068;2024-02-21T01:28:26;101753.08;;;14.72;32.24
80414;BME280;69758;52.580;13.068;2024-02-21T01:30:51;101750.78;;;14.54;32.17
80414;BME280;69758;52.580;13.068;2024-02-21T01:33:16;101750.94;;;14.38;32.09
80414;BME280;69758;52.580;13.068;2024-02-21T01:35:43;101744.32;;;14.72;32.02
80414;BME280;69758;52.580;13.068;2024-02-21T01:38:07;101744.80;;;14.99;31.98
80414;BME280;69758;52.580;13.068;2024-02-21T01:40:32;101739.61;;;14.98;31.94
80414;BME280;69758;52.580;13.068;2024-02-21T01:42:58;101741.71;;;14.57;32.10
80414;BME280;69758;52.580;13.068;2024-02-21T01:45:23;101739.86;;;15.26;31.86
80414;BME280;69758;52.580;13.068;2024-02-21T01:47:49;101732.14;;;14.80;31.84
80414;BME280;69758;52.580;13.068;2024-02-21T01:50:15;101735.56;;;15.15;31.95
80414;BME280;69758;52.580;13.068;2024-02-21T01:52:40;101737.97;;;14.14;32.33
80414;BME280;69758;52.580;13.068;2024-02-21T01:55:06;101736.43;;;14.38;32.42
80414;BME280;69758;52.580;13.068;2024-02-21T01:57:30;101734.22;;;14.71;32.34
80414;BME280;69758;52.580;13.068;2024-02-21T01:59:55;101733.97;;;14.26;33.26
80414;BME280;69758;52.580;13.068;2024-02-21T02:02:21;101726.53;;;14.18;33.31
80414;BME280;69758;52.580;13.068;2024-02-21T02:04:46;101723.28;;;14.23;33.13
80414;BME280;69758;52.580;13.068;2024-02-21T02:07:11;101720.73;;;14.63;33.30
80414;BME280;69758;52.580;13.068;2024-02-21T02:09:36;101723.40;;;14.71;33.26
80414;BME280;69758;52.580;13.068;2024-02-21T02:12:02;101716.99;;;14.08;33.66
80414;BME280;69758;52.580;13.068;2024-02-21T02:14:27;101715.04;;;14.38;33.71
80414;BME280;69758;52.580;13.068;2024-02-21T02:16:52;101711.51;;;13.85;34.24
80414;BME280;69758;52.580;13.068;2024-02-21T02:19:18;101710.31;;;14.11;34.53
80414;BME280;69758;52.580;13.068;2024-02-21T02:21:46;101709.39;;;14.20;34.51
80414;BME280;69758;52.580;13.068;2024-02-21T02:24:08;101707.96;;;14.28;34.81
80414;BME280;69758;52.580;13.068;2024-02-21T02:26:34;101705.09;;;13.93;35.42
80414;BME280;69758;52.580;13.068;2024-02-21T02:29:01;101702.27;;;14.21;35.55
80414;BME280;69758;52.580;13.068;2024-02-21T02:31:25;101702.14;;;13.96;35.59
80414;BME280;69758;52.580;13.068;2024-02-21T02:33:51;101695.10;;;14.27;35.29
80414;BME280;69758;52.580;13.068;2024-02-21T02:36:17;101687.69;;;14.39;35.16
80414;BME280;69758;52.580;13.068;2024-02-21T02:38:42;101687.68;;;14.02;35.34
80414;BME280;69758;52.580;13.068;2024-02-21T02:41:08;101684.94;;;14.35;35.32
80414;BME280;69758;52.580;13.068;2024-02-21T02:43:33;101675.14;;;14.04;35.91
80414;BME280;69758;52.580;13.068;2024-02-21T02:45:58;101675.05;;;14.01;35.83
80414;BME280;69758;52.580;13.068;2024-02-21T02:48:24;101673.96;;;13.88;36.10
80414;BME280;69758;52.580;13.068;2024-02-21T02:50:49;101669.09;;;14.15;35.77
80414;BME280;69758;52.580;13.068;2024-02-21T02:53:14;101668.66;;;14.35;35.86
80414;BME280;69758;52.580;13.068;2024-02-21T02:55:40;101665.93;;;13.66;36.88
80414;BME280;69758;52.580;13.068;2024-02-21T02:58:05;101662.36;;;13.45;36.94
80414;BME280;69758;52.580;13.068;2024-02-21T03:00:31;101660.49;;;13.15;37.40
80414;BME280;69758;52.580;13.068;2024-02-21T03:02:56;101658.79;;;13.61;37.48
80414;BME280;69758;52.580;13.068;2024-02-21T03:05:22;101657.13;;;12.88;38.01
80414;BME280;69758;52.580;13.068;2024-02-21T03:07:47;101655.24;;;13.45;37.56
80414;BME280;69758;52.580;13.068;2024-02-21T03:10:12;101652.00;;;13.14;37.71
80414;BME280;69758;52.580;13.068;2024-02-21T03:12:38;101648.80;;;13.62;37.71
80414;BME280;69758;52.580;13.068;2024-02-21T03:15:04;101653.49;;;13.01;37.67
80414;BME280;69758;52.580;13.068;2024-02-21T03:17:28;101651.02;;;13.28;37.61
80414;BME280;69758;52.580;13.068;2024-02-21T03:19:54;101650.55;;;13.63;37.47
80414;BME280;69758;52.580;13.068;2024-02-21T03:22:19;101645.52;;;13.55;37.34
80414;BME280;69758;52.580;13.068;2024-02-21T03:24:45;101642.89;;;13.46;37.40
80414;BME280;69758;52.580;13.068;2024-02-21T03:27:11;101636.79;;;13.62;37.23
80414;BME280;69758;52.580;13.068;2024-02-21T03:29:38;101634.11;;;13.87;36.92
80414;BME280;69758;52.580;13.068;2024-02-21T03:32:03;101625.42;;;13.81;37.02
80414;BME280;69758;52.580;13.068;2024-02-21T03:34:28;101622.37;;;13.57;37.37
80414;BME280;69758;52.580;13.068;2024-02-21T03:36:53;101618.93;;;13.75;37.18
80414;BME280;69758;52.580;13.068;2024-02-21T03:39:19;101619.20;;;13.77;37.13
80414;BME280;69758;52.580;13.068;2024-02-21T03:41:44;101619.01;;;13.87;36.89
80414;BME280;69758;52.580;13.068;2024-02-21T03:44:09;101620.95;;;13.96;36.85
80414;BME280;69758;52.580;13.068;2024-02-21T03:46:35;101619.47;;;13.77;37.15
80414;BME280;69758;52.580;13.068;2024-02-21T03:49:00;101616.53;;;13.87;36.99
80414;BME280;69758;52.580;13.068;2024-02-21T03:51:25;101612.96;;;13.87;37.04
80414;BME280;69758;52.580;13.068;2024-02-21T03:53:51;101607.84;;;13.89;37.05
80414;BME280;69758;52.580;13.068;2024-02-21T03:56:16;101601.94;;;14.03;36.74
80414;BME280;69758;52.580;13.068;2024-02-21T03:58:41;101595.71;;;13.78;36.80
80414;BME280;69758;52.580;13.068;2024-02-21T04:01:07;101588.51;;;14.04;36.71
80414;BME280;69758;52.580;13.068;2024-02-21T04:03:32;101584.27;;;14.10;36.62
80414;BME280;69758;52.580;13.068;2024-02-21T04:05:58;101580.47;;;13.92;36.88
80414;BME280;69758;52.580;13.068;2024-02-21T04:08:23;101583.58;;;14.05;36.72
80414;BME280;69758;52.580;13.068;2024-02-21T04:10:48;101582.27;;;13.81;36.78
80414;BME280;69758;52.580;13.068;2024-02-21T04:13:14;101573.32;;;13.95;36.93
80414;BME280;69758;52.580;13.068;2024-02-21T04:15:39;101567.67;;;13.99;36.82
80414;BME280;69758;52.580;13.068;2024-02-21T04:18:05;101564.71;;;13.87;36.97
80414;BME280;69758;52.580;13.068;2024-02-21T04:20:30;101555.83;;;13.72;37.25
80414;BME280;69758;52.580;13.068;2024-02-21T04:22:56;101542.24;;;13.80;37.17
80414;BME280;69758;52.580;13.068;2024-02-21T04:25:22;101531.15;;;13.60;37.33
80414;BME280;69758;52.580;13.068;2024-02-21T04:27:47;101528.70;;;13.67;37.29
80414;BME280;69758;52.580;13.068;2024-02-21T04:30:12;101526.18;;;13.79;37.40
80414;BME280;69758;52.580;13.068;2024-02-21T04:32:39;101525.39;;;14.01;37.17
80414;BME280;69758;52.580;13.068;2024-02-21T04:35:03;101523.65;;;13.57;37.40
80414;BME280;69758;52.580;13.068;2024-02-21T04:37:28;101514.90;;;13.92;37.30
80414;BME280;69758;52.580;13.068;2024-02-21T04:39:53;101509.95;;;13.75;37.16
80414;BME280;69758;52.580;13.068;2024-02-21T04:42:18;101506.27;;;13.90;36.96
80414;BME280;69758;52.580;13.068;2024-02-21T04:44:44;101507.34;;;13.88;36.97
80414;BME280;69758;52.580;13.068;2024-02-21T04:47:10;101505.54;;;13.76;36.87
80414;BME280;69758;52.580;13.068;2024-02-21T04:49:35;101506.18;;;13.96;36.87
80414;BME280;69758;52.580;13.068;2024-02-21T04:52:01;101507.39;;;13.86;36.90
80414;BME280;69758;52.580;13.068;2024-02-21T04:54:26;101512.43;;;13.95;36.80
80414;BME280;69758;52.580;13.068;2024-02-21T04:56:51;101512.32;;;13.73;36.67
80414;BME280;69758;52.580;13.068;2024-02-21T04:59:17;101511.01;;;13.69;37.02
80414;BME280;69758;52.580;13.068;2024-02-21T05:01:42;101508.18;;;13.79;36.98
80414;BME280;69758;52.580;13.068;2024-02-21T05:04:08;101503.74;;;13.54;37.32
80414;BME280;69758;52.580;13.068;2024-02-21T05:06:37;101502.19;;;13.56;37.35
80414;BME280;69758;52.580;13.068;2024-02-21T05:08:59;101500.87;;;13.69;37.21
80414;BME280;69758;52.580;13.068;2024-02-21T05:11:24;101497.59;;;13.86;37.00
80414;BME280;69758;52.580;13.068;2024-02-21T05:13:50;101502.58;;;13.87;36.91
80414;BME280;69758;52.580;13.068;2024-02-21T05:16:16;101504.86;;;13.95;36.82
80414;BME280;69758;52.580;13.068;2024-02-21T05:18:41;101505.62;;;13.61;36.98
80414;BME280;69758;52.580;13.068;2024-02-21T05:21:07;101503.37;;;14.00;36.77
80414;BME280;69758;52.580;13.068;2024-02-21T05:23:32;101508.84;;;13.94;36.79
80414;BME280;69758;52.580;13.068;2024-02-21T05:25:58;101510.07;;;13.65;37.22
80414;BME280;69758;52.580;13.068;2024-02-21T05:28:23;101509.60;;;13.98;37.16
80414;BME280;69758;52.580;13.068;2024-02-21T05:30:48;101509.77;;;13.66;37.01
80414;BME280;69758;52.580;13.068;2024-02-21T05:33:14;101503.24;;;13.94;36.93
80414;BME280;69758;52.580;13.068;2024-02-21T05:35:39;101500.02;;;14.05;36.74
80414;BME280;69758;52.580;13.068;2024-02-21T05:38:04;101497.89;;;13.98;36.75
80414;BME280;69758;52.580;13.068;2024-02-21T05:40:29;101494.53;;;14.03;36.68
80414;BME280;69758;52.580;13.068;2024-02-21T05:42:55;101493.98;;;13.85;36.97
80414;BME280;69758;52.580;13.068;2024-02-21T05:45:20;101489.07;;;13.91;36.88
80414;BME280;69758;52.580;13.068;2024-02-21T05:47:46;101490.31;;;14.13;36.52
80414;BME280;69758;52.580;13.068;2024-02-21T05:50:12;101486.70;;;13.60;37.24
80414;BME280;69758;52.580;13.068;2024-02-21T05:52:38;101486.17;;;13.73;37.11
80414;BME280;69758;52.580;13.068;2024-02-21T05:55:04;101488.07;;;13.88;36.95
80414;BME280;69758;52.580;13.068;2024-02-21T05:57:29;101484.07;;;13.75;37.11
80414;BME280;69758;52.580;13.068;2024-02-21T05:59:55;101475.72;;;13.90;36.92
80414;BME280;69758;52.580;13.068;2024-02-21T06:02:21;101476.51;;;13.91;36.94
80414;BME280;69758;52.580;13.068;2024-02-21T06:04:46;101467.68;;;13.95;36.86
80414;BME280;69758;52.580;13.068;2024-02-21T06:07:12;101469.02;;;13.82;36.92
80414;BME280;69758;52.580;13.068;2024-02-21T06:09:37;101473.84;;;13.54;37.31
80414;BME280;69758;52.580;13.068;2024-02-21T06:12:03;101457.39;;;13.30;37.28
80414;BME280;69758;52.580;13.068;2024-02-21T06:14:28;101460.02;;;13.97;37.43
80414;BME280;69758;52.580;13.068;2024-02-21T06:16:54;101464.83;;;13.47;37.45
80414;BME280;69758;52.580;13.068;2024-02-21T06:19:19;101470.19;;;13.08;38.01
80414;BME280;69758;52.580;13.068;2024-02-21T06:21:44;101473.61;;;13.26;37.85
80414;BME280;69758;52.580;13.068;2024-02-21T06:24:09;101472.06;;;13.53;37.48
80414;BME280;69758;52.580;13.068;2024-02-21T06:26:35;101470.14;;;13.61;37.37
80414;BME280;69758;52.580;13.068;2024-02-21T06:29:00;101473.02;;;13.71;37.24
80414;BME280;69758;52.580;13.068;2024-02-21T06:31:26;101474.44;;;13.75;37.16
80414;BME280;69758;52.580;13.068;2024-02-21T06:33:51;101480.17;;;13.61;36.95
80414;BME280;69758;52.580;13.068;2024-02-21T06:36:27;101479.27;;;13.59;37.27
80414;BME280;69758;52.580;13.068;2024-02-21T06:38:42;101478.50;;;13.03;37.40
80414;BME280;69758;52.580;13.068;2024-02-21T06:41:14;101474.32;;;13.99;37.08
80414;BME280;69758;52.580;13.068;2024-02-21T06:43:33;101476.44;;;13.80;37.01
80414;BME280;69758;52.580;13.068;2024-02-21T06:45:58;101473.70;;;13.99;36.75
80414;BME280;69758;52.580;13.068;2024-02-21T06:48:24;101476.51;;;14.06;36.66
80414;BME280;69758;52.580;13.068;2024-02-21T06:50:49;101476.93;;;13.82;37.17
80414;BME280;69758;52.580;13.068;2024-02-21T06:53:14;101482.78;;;13.62;37.23
80414;BME280;69758;52.580;13.068;2024-02-21T06:55:40;101483.09;;;13.58;36.98
80414;BME280;69758;52.580;13.068;2024-02-21T06:58:05;101480.59;;;13.59;37.17
80414;BME280;69758;52.580;13.068;2024-02-21T07:00:30;101473.31;;;13.77;36.95
80414;BME280;69758;52.580;13.068;2024-02-21T07:02:56;101474.36;;;13.92;36.72
80414;BME280;69758;52.580;13.068;2024-02-21T07:05:21;101473.94;;;14.05;36.82
80414;BME280;69758;52.580;13.068;2024-02-21T07:07:47;101479.53;;;13.32;37.08
80414;BME280;69758;52.580;13.068;2024-02-21T07:10:12;101479.82;;;13.86;36.71
80414;BME280;69758;52.580;13.068;2024-02-21T07:12:38;101474.14;;;13.66;36.98
80414;BME280;69758;52.580;13.068;2024-02-21T07:15:03;101471.60;;;13.91;36.60
80414;BME280;69758;52.580;13.068;2024-02-21T07:17:28;101469.93;;;13.74;36.67
80414;BME280;69758;52.580;13.068;2024-02-21T07:19:54;101469.69;;;13.91;36.61
80414;BME280;69758;52.580;13.068;2024-02-21T07:22:19;101470.95;;;14.11;36.33
80414;BME280;69758;52.580;13.068;2024-02-21T07:24:45;101470.33;;;14.09;36.34
80414;BME280;69758;52.580;13.068;2024-02-21T07:27:10;101465.17;;;13.85;36.61
80414;BME280;69758;52.580;13.068;2024-02-21T07:29:35;101468.34;;;13.99;36.48
80414;BME280;69758;52.580;13.068;2024-02-21T07:32:02;101467.82;;;14.07;36.29
80414;BME280;69758;52.580;13.068;2024-02-21T07:34:26;101471.23;;;14.13;36.08
80414;BME280;69758;52.580;13.068;2024-02-21T07:36:51;101476.67;;;14.09;36.16
80414;BME280;69758;52.580;13.068;2024-02-21T07:39:17;101479.19;;;14.05;36.20
80414;BME280;69758;52.580;13.068;2024-02-21T07:41:43;101476.21;;;14.13;35.95
80414;BME280;69758;52.580;13.068;2024-02-21T07:44:08;101476.93;;;13.99;36.06
80414;BME280;69758;52.580;13.068;2024-02-21T07:46:34;101469.36;;;13.89;36.25
80414;BME280;69758;52.580;13.068;2024-02-21T07:49:00;101466.79;;;14.01;36.10
80414;BME280;69758;52.580;13.068;2024-02-21T07:51:27;101470.25;;;13.82;36.01
80414;BME280;69758;52.580;13.068;2024-02-21T07:53:50;101468.41;;;14.03;35.91
80414;BME280;69758;52.580;13.068;2024-02-21T07:56:16;101468.59;;;13.96;35.84
80414;BME280;69758;52.580;13.068;2024-02-21T07:58:41;101464.08;;;13.75;35.80
80414;BME280;69758;52.580;13.068;2024-02-21T08:01:06;101465.42;;;13.98;35.54
80414;BME280;69758;52.580;13.068;2024-02-21T08:03:32;101467.65;;;14.41;35.16
80414;BME280;69758;52.580;13.068;2024-02-21T08:05:57;101468.29;;;13.99;35.41
80414;BME280;69758;52.580;13.068;2024-02-21T08:08:23;101470.83;;;14.54;35.37
80414;BME280;69758;52.580;13.068;2024-02-21T08:10:49;101466.13;;;13.57;35.94
80414;BME280;69758;52.580;13.068;2024-02-21T08:13:13;101463.58;;;14.28;35.78
80414;BME280;69758;52.580;13.068;2024-02-21T08:15:39;101464.40;;;14.33;35.67
80414;BME280;69758;52.580;13.068;2024-02-21T08:18:05;101468.36;;;14.40;35.59
80414;BME280;69758;52.580;13.068;2024-02-21T08:20:31;101459.84;;;14.23;35.72
80414;BME280;69758;52.580;13.068;2024-02-21T08:22:56;101455.39;;;13.82;36.21
80414;BME280;69758;52.580;13.068;2024-02-21T08:25:22;101452.54;;;13.91;36.22
80414;BME280;69758;52.580;13.068;2024-02-21T08:27:47;101452.79;;;14.04;36.05
80414;BME280;69758;52.580;13.068;2024-02-21T08:30:13;101455.84;;;13.87;36.21
80414;BME280;69758;52.580;13.068;2024-02-21T08:32:38;101457.43;;;14.09;36.19
80414;BME280;69758;52.580;13.068;2024-02-21T08:35:04;101460.89;;;14.29;35.92
80414;BME280;69758;52.580;13.068;2024-02-21T08:37:29;101459.96;;;14.10;35.97
80414;BME280;69758;52.580;13.068;2024-02-21T08:39:54;101461.05;;;13.83;36.32
80414;BME280;69758;52.580;13.068;2024-02-21T08:42:19;101461.01;;;14.01;35.91
80414;BME280;69758;52.580;13.068;2024-02-21T08:44:45;101459.33;;;14.10;35.53
80414;BME280;69758;52.580;13.068;2024-02-21T08:47:11;101463.08;;;14.05;35.49
80414;BME280;69758;52.580;13.068;2024-02-21T08:49:36;101461.28;;;14.50;35.35
80414;BME280;69758;52.580;13.068;2024-02-21T08:52:01;101465.30;;;14.39;35.21
80414;BME280;69758;52.580;13.068;2024-02-21T08:54:26;101461.65;;;14.32;35.60
80414;BME280;69758;52.580;13.068;2024-02-21T08:56:52;101457.83;;;13.60;36.41
80414;BME280;69758;52.580;13.068;2024-02-21T08:59:18;101457.68;;;13.54;36.73
80414;BME280;69758;52.580;13.068;2024-02-21T09:01:44;101452.16;;;13.80;36.12
80414;BME280;69758;52.580;13.068;2024-02-21T09:04:08;101454.21;;;13.82;36.43
80414;BME280;69758;52.580;13.068;2024-02-21T09:06:33;101454.70;;;14.06;36.18
80414;BME280;69758;52.580;13.068;2024-02-21T09:08:58;101451.80;;;14.30;35.80
80414;BME280;69758;52.580;13.068;2024-02-21T09:11:24;101459.83;;;13.79;35.81
80414;BME280;69758;52.580;13.068;2024-02-21T09:13:50;101452.61;;;14.15;35.40
80414;BME280;69758;52.580;13.068;2024-02-21T09:16:15;101452.40;;;14.74;35.26
80414;BME280;69758;52.580;13.068;2024-02-21T09:18:41;101450.61;;;14.98;35.05
80414;BME280;69758;52.580;13.068;2024-02-21T09:21:06;101443.48;;;14.68;35.05
80414;BME280;69758;52.580;13.068;2024-02-21T09:23:31;101438.35;;;14.76;35.12
80414;BME280;69758;52.580;13.068;2024-02-21T09:25:56;101439.79;;;14.41;35.71
80414;BME280;69758;52.580;13.068;2024-02-21T09:28:22;101439.39;;;14.20;35.69
80414;BME280;69758;52.580;13.068;2024-02-21T09:30:48;101435.82;;;13.66;36.07
80414;BME280;69758;52.580;13.068;2024-02-21T09:33:13;101442.55;;;14.10;35.71
80414;BME280;69758;52.580;13.068;2024-02-21T09:35:39;101443.31;;;14.18;35.71
80414;BME280;69758;52.580;13.068;2024-02-21T09:38:04;101442.57;;;13.85;36.15
80414;BME280;69758;52.580;13.068;2024-02-21T09:40:29;101434.16;;;13.90;35.86
80414;BME280;69758;52.580;13.068;2024-02-21T09:43:02;101434.59;;;14.06;36.05
80414;BME280;69758;52.580;13.068;2024-02-21T09:45:21;101436.75;;;14.10;35.98
80414;BME280;69758;52.580;13.068;2024-02-21T09:47:55;101436.21;;;13.93;36.42
80414;BME280;69758;52.580;13.068;2024-02-21T09:50:11;101438.87;;;14.28;36.10
80414;BME280;69758;52.580;13.068;2024-02-21T09:52:37;101443.70;;;13.57;36.88
80414;BME280;69758;52.580;13.068;2024-02-21T09:55:04;101438.99;;;13.20;37.36
80414;BME280;69758;52.580;13.068;2024-02-21T09:57:29;101432.38;;;13.76;36.80
80414;BME280;69758;52.580;13.068;2024-02-21T09:59:55;101432.16;;;13.78;36.47
80414;BME280;69758;52.580;13.068;2024-02-21T10:02:19;101427.82;;;13.84;36.86
80414;BME280;69758;52.580;13.068;2024-02-21T10:04:44;101433.83;;;13.85;36.78
80414;BME280;69758;52.580;13.068;2024-02-21T10:07:10;101432.67;;;14.29;36.23
80414;BME280;69758;52.580;13.068;2024-02-21T10:09:35;101431.62;;;14.20;36.25
80414;BME280;69758;52.580;13.068;2024-02-21T10:12:08;101433.35;;;14.40;36.29
80414;BME280;69758;52.580;13.068;2024-02-21T10:14:26;101436.64;;;14.47;35.91
80414;BME280;69758;52.580;13.068;2024-02-21T10:16:57;101432.72;;;14.67;35.51
80414;BME280;69758;52.580;13.068;2024-02-21T10:19:18;101435.01;;;14.92;35.06
80414;BME280;69758;52.580;13.068;2024-02-21T10:21:43;101431.94;;;14.45;35.02
80414;BME280;69758;52.580;13.068;2024-02-21T10:24:08;101430.50;;;15.16;34.62
80414;BME280;69758;52.580;13.068;2024-02-21T10:26:34;101443.74;;;14.85;35.44
80414;BME280;69758;52.580;13.068;2024-02-21T10:29:01;101453.06;;;14.48;35.74
80414;BME280;69758;52.580;13.068;2024-02-21T10:31:25;101449.63;;;14.05;36.63
80414;BME280;69758;52.580;13.068;2024-02-21T10:33:54;101447.47;;;13.11;38.15
80414;BME280;69758;52.580;13.068;2024-02-21T10:36:15;101446.36;;;13.77;37.54
80414;BME280;69758;52.580;13.068;2024-02-21T10:38:41;101443.44;;;13.12;37.78
80414;BME280;69758;52.580;13.068;2024-02-21T10:41:07;101440.16;;;14.30;37.07
80414;BME280;69758;52.580;13.068;2024-02-21T10:43:38;101439.05;;;14.50;36.72
80414;BME280;69758;52.580;13.068;2024-02-21T10:46:00;101433.47;;;14.43;36.41
80414;BME280;69758;52.580;13.068;2024-02-21T10:48:29;101431.08;;;14.67;36.17
80414;BME280;69758;52.580;13.068;2024-02-21T10:50:56;101430.75;;;14.49;36.27
80414;BME280;69758;52.580;13.068;2024-02-21T10:53:19;101424.14;;;14.73;35.91
80414;BME280;69758;52.580;13.068;2024-02-21T10:55:43;101423.97;;;14.57;35.48
80414;BME280;69758;52.580;13.068;2024-02-21T10:58:04;101414.20;;;14.84;35.63
80414;BME280;69758;52.580;13.068;2024-02-21T11:00:29;101406.10;;;14.37;36.26
80414;BME280;69758;52.580;13.068;2024-02-21T11:02:55;101397.52;;;14.36;36.25
80414;BME280;69758;52.580;13.068;2024-02-21T11:05:20;101389.05;;;14.22;36.86
80414;BME280;69758;52.580;13.068;2024-02-21T11:07:46;101387.48;;;14.13;36.71
80414;BME280;69758;52.580;13.068;2024-02-21T11:10:22;101385.65;;;14.62;36.11
80414;BME280;69758;52.580;13.068;2024-02-21T11:12:36;101374.51;;;15.00;35.75
80414;BME280;69758;52.580;13.068;2024-02-21T11:15:04;101370.46;;;14.87;35.78
80414;BME280;69758;52.580;13.068;2024-02-21T11:17:28;101372.56;;;14.88;35.64
80414;BME280;69758;52.580;13.068;2024-02-21T11:19:53;101371.06;;;14.29;36.08
80414;BME280;69758;52.580;13.068;2024-02-21T11:22:20;101356.67;;;14.39;36.40
80414;BME280;69758;52.580;13.068;2024-02-21T11:24:44;101351.93;;;14.38;35.91
80414;BME280;69758;52.580;13.068;2024-02-21T11:27:11;101350.47;;;14.43;36.24
80414;BME280;69758;52.580;13.068;2024-02-21T11:29:40;101343.46;;;15.00;35.47
80414;BME280;69758;52.580;13.068;2024-02-21T11:32:02;101343.63;;;14.63;35.73
80414;BME280;69758;52.580;13.068;2024-02-21T11:34:26;101337.00;;;15.20;35.10
80414;BME280;69758;52.580;13.068;2024-02-21T11:36:52;101339.50;;;15.08;35.26
80414;BME280;69758;52.580;13.068;2024-02-21T11:39:21;101331.58;;;15.14;34.81
80414;BME280;69758;52.580;13.068;2024-02-21T11:41:42;101327.24;;;14.34;35.08
80414;BME280;69758;52.580;13.068;2024-02-21T11:44:08;101321.71;;;14.67;35.30
80414;BME280;69758;52.580;13.068;2024-02-21T11:46:33;101321.88;;;14.62;35.17
80414;BME280;69758;52.580;13.068;2024-02-21T11:48:59;101314.87;;;15.45;34.63
80414;BME280;69758;52.580;13.068;2024-02-21T11:51:25;101320.22;;;14.96;34.96
80414;BME280;69758;52.580;13.068;2024-02-21T11:53:50;101321.43;;;14.99;34.93
80414;BME280;69758;52.580;13.068;2024-02-21T11:56:15;101314.50;;;15.18;34.71
80414;BME280;69758;52.580;13.068;2024-02-21T11:58:40;101309.68;;;15.13;34.07
80414;BME280;69758;52.580;13.068;2024-02-21T12:01:05;101310.65;;;15.67;33.69
80414;BME280;69758;52.580;13.068;2024-02-21T12:03:30;101304.73;;;15.98;33.48
80414;BME280;69758;52.580;13.068;2024-02-21T12:05:57;101297.44;;;15.77;33.27
80414;BME280;69758;52.580;13.068;2024-02-21T12:08:21;101292.35;;;15.67;33.46
80414;BME280;69758;52.580;13.068;2024-02-21T12:10:47;101284.75;;;16.42;32.96
80414;BME280;69758;52.580;13.068;2024-02-21T12:13:12;101280.85;;;15.91;33.39
80414;BME280;69758;52.580;13.068;2024-02-21T12:15:39;101273.90;;;15.97;33.04
80414;BME280;69758;52.580;13.068;2024-02-21T12:18:04;101273.60;;;16.28;32.85
80414;BME280;69758;52.580;13.068;2024-02-21T12:20:30;101273.11;;;16.01;33.28
80414;BME280;69758;52.580;13.068;2024-02-21T12:22:54;101264.30;;;15.89;33.39
80414;BME280;69758;52.580;13.068;2024-02-21T12:25:21;101254.59;;;15.96;33.57
80414;BME280;69758;52.580;13.068;2024-02-21T12:27:45;101242.31;;;16.05;33.42
80414;BME280;69758;52.580;13.068;2024-02-21T12:30:11;101241.84;;;16.82;32.76